Atlantic Companion — SKPE — position and weather

sailwx.info

Track history (hours):
 
Tides and Currents Weather Stations Pressure Air Temp Water Temp Dewpoint Dewpoint Depression Visibility Wind Speed Wind Dir Waves Ship Positions

Atlantic Companion

Last reported at 2014-Aug-29 00:00 UTC. Time now 2014-Aug-30 18:34 UTC.
Position N 49°36' W 044°48'.

Length 292 m; beam 32.3 m; draft 11.6 m.

Type: Cargo ship. MMSI: 265142000.

Wind from 050 at 13 knots

Barometer 1010.2 mb
Air temperature 13.0 ° C
Visibility: greater than 5.4 NM
Water temperature 13.7 ° C

Date/timePositionNaut miles runAvg speedWind from/ knotsBaromVisibWave heightAir tempDewpointWater temp
2014-Aug-29 00:00N 49°36' W 044°48'10116.8 050 / 131010.2 5.4 13.0 13.7
2014-Aug-28 18:00N 50°24' W 042°30'9315.6 310 / 131008.010.8 1.014.0 12.0
2014-Aug-28 12:00N 51°06' W 040°18'9916.5 280 / 271003.7 5.4 4.012.2 11.9
2014-Aug-28 06:00N 51°48' W 037°54'9215.3 220 / 27998.6 14.7 13.0
2014-Aug-28 00:00N 52°24' W 035°36'9215.4 220 / 201005.0 5.4 3.013.2 12.6
2014-Aug-27 18:00N 52°54' W 033°12'18015.0 300 / 361007.110.8 6.012.0 12.0
2014-Aug-27 06:00N 53°48' W 028°24'9115.2 270 / 24994.6 5.4 1.011.9 12.3
2014-Aug-27 00:00N 54°12' W 025°54'10918.1 180 / 16997.7 5.4 2.013.0 13.2
2014-Aug-26 18:00N 54°42' W 022°54'41517.3 160 / 121003.3 2.2 0.514.1 13.3
2014-Aug-25 18:00N 55°24' W 010°54'12717.1 070 / 251000.5 5.4 1.015.3 13.3
2014-Aug-25 10:33N 55°29' W 007°10'1716.7
2014-Aug-25 09:33N 55°27' W 006°41'1616.4
2014-Aug-25 08:33N 55°25' W 006°12'1514.7
2014-Aug-25 07:33N 55°15' W 005°53'1716.6
2014-Aug-25 06:30N 55°00' W 005°37'1717.6
2014-Aug-25 05:33N 54°46' W 005°22'1817.9
2014-Aug-25 04:33N 54°29' W 005°12'1818.3
2014-Aug-25 03:33N 54°11' W 005°06'3617.4
2014-Aug-25 01:29N 53°46' W 004°21'1819.2
2014-Aug-25 00:33N 53°38' W 003°55'1818.1
2014-Aug-24 23:33N 53°33' W 003°26'1413.8
2014-Aug-24 22:33N 53°28' W 003°04'2 0.8
2014-Aug-24 20:15N 53°28' W 003°01'0 0.0
2014-Aug-24 19:06N 53°28' W 003°01'0 0.0
2014-Aug-24 18:18N 53°28' W 003°01'0 0.0
2014-Aug-24 17:33N 53°28' W 003°01'0 0.0
2014-Aug-24 10:18N 53°28' W 003°01'0 0.0
2014-Aug-23 21:10N 53°28' W 003°01'1 0.5
2014-Aug-23 19:12N 53°27' W 003°02'200 7.8
2014-Aug-22 17:22N 50°16' W 001°23'3317.5
2014-Aug-22 15:28N 50°25' W 000°32'2519.3
2014-Aug-22 14:10N 50°31' E 000°06'1219.6
2014-Aug-22 13:34N 50°34' E 000°24'1918.9
2014-Aug-22 12:33N 50°42' E 000°51'1818.2
2014-Aug-22 11:33N 50°53' E 001°14'1717.0
2014-Aug-22 10:34N 51°05' E 001°33'1716.9
2014-Aug-22 09:34N 51°18' E 001°51'1414.4
2014-Aug-22 08:33N 51°21' E 002°13'1211.9
2014-Aug-22 07:33N 51°23' E 002°32'3 3.1
2014-Aug-22 06:31N 51°24' E 002°37'0 0.3
2014-Aug-22 05:31N 51°24' E 002°37'0 0.1
2014-Aug-22 04:33N 51°24' E 002°37'8 8.3
2014-Aug-22 03:33N 51°22' E 002°50'1312.9
2014-Aug-22 02:33N 51°24' E 003°10'1413.9
2014-Aug-22 01:33N 51°26' E 003°32'10 9.7
2014-Aug-22 00:33N 51°22' E 003°47'1010.2
2014-Aug-21 23:34N 51°26' E 004°02'8 8.3
2014-Aug-21 22:34N 51°22' E 004°13'3 2.7
2014-Aug-21 21:33N 51°20' E 004°17'0 0.0
2014-Aug-21 20:33N 51°20' E 004°17'0 0.0
2014-Aug-21 19:33N 51°20' E 004°17'0 0.0
2014-Aug-21 18:33N 51°20' E 004°17'0 0.0
2014-Aug-21 17:34N 51°20' E 004°17'0 0.0
2014-Aug-21 16:34N 51°20' E 004°17'0 0.0
2014-Aug-21 15:33N 51°20' E 004°17'0 0.0
2014-Aug-21 14:33N 51°20' E 004°17'0 0.0
2014-Aug-21 13:34N 51°20' E 004°17'0 0.0
2014-Aug-21 12:33N 51°20' E 004°17'0 0.0
2014-Aug-21 11:33N 51°20' E 004°17'0 0.0
2014-Aug-21 10:33N 51°20' E 004°17'5 5.5
2014-Aug-21 09:34N 51°22' E 004°09'1111.3
2014-Aug-21 08:33N 51°21' E 003°51'1313.1
2014-Aug-21 07:34N 51°25' E 003°31'1818.2
2014-Aug-21 06:33N 51°25' E 003°02'1815.6
2014-Aug-21 05:22N 51°42' E 003°13'1011.4
2014-Aug-21 04:32N 51°51' E 003°16'8215.6
2014-Aug-20 23:18N 53°05' E 004°15'1415.6
2014-Aug-20 22:23N 53°16' E 004°28'1316.2
2014-Aug-20 21:34N 53°29' E 004°38'1716.9
2014-Aug-20 20:33N 53°35' E 005°04'1716.8
2014-Aug-20 19:33N 53°40' E 005°31'1716.5
2014-Aug-20 18:33N 53°46' E 005°58'6015.1
2014-Aug-20 14:34N 54°01' E 007°36'1615.7
2014-Aug-20 13:33N 54°01' E 008°03'1615.5
2014-Aug-20 12:34N 53°59' E 008°29'1615.7
2014-Aug-20 11:33N 53°50' E 008°52'1515.4
2014-Aug-20 10:34N 53°52' E 009°18'1413.8
2014-Aug-20 09:33N 53°40' E 009°31'10 9.8
2014-Aug-20 08:33N 53°34' E 009°43'8 8.3
2014-Aug-20 07:33N 53°33' E 009°57'2 1.9
2014-Aug-20 06:31N 53°32' E 009°60'0 0.0
2014-Aug-20 05:25N 53°32' E 009°60'0 0.0
2014-Aug-20 04:31N 53°32' E 009°60'0 0.0
2014-Aug-20 03:31N 53°32' E 009°60'0 0.0
2014-Aug-20 02:25N 53°32' E 009°60'0 0.0
2014-Aug-20 01:13N 53°32' E 009°60'0 0.0
2014-Aug-20 00:31N 53°32' E 009°60'0 0.0
2014-Aug-19 23:31N 53°32' E 009°60'0 0.0
2014-Aug-19 22:31N 53°32' E 009°60'0 0.0
2014-Aug-19 21:32N 53°32' E 009°60'0 0.0
2014-Aug-19 20:34N 53°32' E 009°60'5 4.8
2014-Aug-19 19:34N 53°33' E 009°52'1111.3
2014-Aug-19 18:33N 53°37' E 009°34'1514.8
2014-Aug-19 17:33N 53°49' E 009°22'1414.3
2014-Aug-19 16:33N 53°51' E 008°57'1615.9
2014-Aug-19 15:33N 53°58' E 008°33'1717.3
2014-Aug-19 14:33N 53°60' E 008°04'1717.4
2014-Aug-19 13:33N 54°09' E 007°39'1818.3
2014-Aug-19 12:33N 54°24' E 007°20'1818.2
2014-Aug-19 11:33N 54°42' E 007°19'1818.1
2014-Aug-19 10:33N 54°60' E 007°21'1817.6
2014-Aug-19 09:33N 55°17' E 007°22'1817.3
2014-Aug-19 08:32N 55°35' E 007°21'1816.7
2014-Aug-19 07:29N 55°52' E 007°28'1616.8
2014-Aug-19 06:33N 56°08' E 007°33'3616.5
2014-Aug-19 04:21N 56°44' E 007°46'2915.0
2014-Aug-19 02:27N 57°09' E 008°09'3014.5
2014-Aug-19 00:21N 57°27' E 008°54'  
Track history (hours):
 
Tides and Currents Weather Stations Pressure Air Temp Water Temp Dewpoint Dewpoint Depression Visibility Wind Speed Wind Dir Waves Ship Positions

Atlantic Companion

Last reported at 2014-Aug-29 00:00 UTC. Time now 2014-Aug-30 18:34 UTC.
Position N 49°36' W 044°48'.

Length 292 m; beam 32.3 m; draft 11.6 m.

Type: Cargo ship. MMSI: 265142000.

Wind from 050 at 13 knots

Barometer 1010.2 mb
Air temperature 13.0 ° C
Visibility: greater than 5.4 NM
Water temperature 13.7 ° C

Date/timePositionNaut miles runAvg speedWind from/ knotsBaromVisibWave heightAir tempDewpointWater temp
2014-Aug-29 00:00N 49°36' W 044°48'10116.8 050 / 131010.2 5.4 13.0 13.7
2014-Aug-28 18:00N 50°24' W 042°30'9315.6 310 / 131008.010.8 1.014.0 12.0
2014-Aug-28 12:00N 51°06' W 040°18'9916.5 280 / 271003.7 5.4 4.012.2 11.9
2014-Aug-28 06:00N 51°48' W 037°54'9215.3 220 / 27998.6 14.7 13.0
2014-Aug-28 00:00N 52°24' W 035°36'9215.4 220 / 201005.0 5.4 3.013.2 12.6
2014-Aug-27 18:00N 52°54' W 033°12'18015.0 300 / 361007.110.8 6.012.0 12.0
2014-Aug-27 06:00N 53°48' W 028°24'9115.2 270 / 24994.6 5.4 1.011.9 12.3
2014-Aug-27 00:00N 54°12' W 025°54'10918.1 180 / 16997.7 5.4 2.013.0 13.2
2014-Aug-26 18:00N 54°42' W 022°54'41517.3 160 / 121003.3 2.2 0.514.1 13.3
2014-Aug-25 18:00N 55°24' W 010°54'12717.1 070 / 251000.5 5.4 1.015.3 13.3
2014-Aug-25 10:33N 55°29' W 007°10'1716.7
2014-Aug-25 09:33N 55°27' W 006°41'1616.4
2014-Aug-25 08:33N 55°25' W 006°12'1514.7
2014-Aug-25 07:33N 55°15' W 005°53'1716.6
2014-Aug-25 06:30N 55°00' W 005°37'1717.6
2014-Aug-25 05:33N 54°46' W 005°22'1817.9
2014-Aug-25 04:33N 54°29' W 005°12'1818.3
2014-Aug-25 03:33N 54°11' W 005°06'3617.4
2014-Aug-25 01:29N 53°46' W 004°21'1819.2
2014-Aug-25 00:33N 53°38' W 003°55'1818.1
2014-Aug-24 23:33N 53°33' W 003°26'1413.8
2014-Aug-24 22:33N 53°28' W 003°04'2 0.8
2014-Aug-24 20:15N 53°28' W 003°01'0 0.0
2014-Aug-24 19:06N 53°28' W 003°01'0 0.0
2014-Aug-24 18:18N 53°28' W 003°01'0 0.0
2014-Aug-24 17:33N 53°28' W 003°01'0 0.0
2014-Aug-24 10:18N 53°28' W 003°01'0 0.0
2014-Aug-23 21:10N 53°28' W 003°01'1 0.5
2014-Aug-23 19:12N 53°27' W 003°02'200 7.8
2014-Aug-22 17:22N 50°16' W 001°23'3317.5
2014-Aug-22 15:28N 50°25' W 000°32'2519.3
2014-Aug-22 14:10N 50°31' E 000°06'1219.6
2014-Aug-22 13:34N 50°34' E 000°24'1918.9
2014-Aug-22 12:33N 50°42' E 000°51'1818.2
2014-Aug-22 11:33N 50°53' E 001°14'1717.0
2014-Aug-22 10:34N 51°05' E 001°33'1716.9
2014-Aug-22 09:34N 51°18' E 001°51'1414.4
2014-Aug-22 08:33N 51°21' E 002°13'1211.9
2014-Aug-22 07:33N 51°23' E 002°32'3 3.1
2014-Aug-22 06:31N 51°24' E 002°37'0 0.3
2014-Aug-22 05:31N 51°24' E 002°37'0 0.1
2014-Aug-22 04:33N 51°24' E 002°37'8 8.3
2014-Aug-22 03:33N 51°22' E 002°50'1312.9
2014-Aug-22 02:33N 51°24' E 003°10'1413.9
2014-Aug-22 01:33N 51°26' E 003°32'10 9.7
2014-Aug-22 00:33N 51°22' E 003°47'1010.2
2014-Aug-21 23:34N 51°26' E 004°02'8 8.3
2014-Aug-21 22:34N 51°22' E 004°13'3 2.7
2014-Aug-21 21:33N 51°20' E 004°17'0 0.0
2014-Aug-21 20:33N 51°20' E 004°17'0 0.0
2014-Aug-21 19:33N 51°20' E 004°17'0 0.0
2014-Aug-21 18:33N 51°20' E 004°17'0 0.0
2014-Aug-21 17:34N 51°20' E 004°17'0 0.0
2014-Aug-21 16:34N 51°20' E 004°17'0 0.0
2014-Aug-21 15:33N 51°20' E 004°17'0 0.0
2014-Aug-21 14:33N 51°20' E 004°17'0 0.0
2014-Aug-21 13:34N 51°20' E 004°17'0 0.0
2014-Aug-21 12:33N 51°20' E 004°17'0 0.0
2014-Aug-21 11:33N 51°20' E 004°17'0 0.0
2014-Aug-21 10:33N 51°20' E 004°17'5 5.5
2014-Aug-21 09:34N 51°22' E 004°09'1111.3
2014-Aug-21 08:33N 51°21' E 003°51'1313.1
2014-Aug-21 07:34N 51°25' E 003°31'1818.2
2014-Aug-21 06:33N 51°25' E 003°02'1815.6
2014-Aug-21 05:22N 51°42' E 003°13'1011.4
2014-Aug-21 04:32N 51°51' E 003°16'8215.6
2014-Aug-20 23:18N 53°05' E 004°15'1415.6
2014-Aug-20 22:23N 53°16' E 004°28'1316.2
2014-Aug-20 21:34N 53°29' E 004°38'1716.9
2014-Aug-20 20:33N 53°35' E 005°04'1716.8
2014-Aug-20 19:33N 53°40' E 005°31'1716.5
2014-Aug-20 18:33N 53°46' E 005°58'6015.1
2014-Aug-20 14:34N 54°01' E 007°36'1615.7
2014-Aug-20 13:33N 54°01' E 008°03'1615.5
2014-Aug-20 12:34N 53°59' E 008°29'1615.7
2014-Aug-20 11:33N 53°50' E 008°52'1515.4
2014-Aug-20 10:34N 53°52' E 009°18'1413.8
2014-Aug-20 09:33N 53°40' E 009°31'10 9.8
2014-Aug-20 08:33N 53°34' E 009°43'8 8.3
2014-Aug-20 07:33N 53°33' E 009°57'2 1.9
2014-Aug-20 06:31N 53°32' E 009°60'0 0.0
2014-Aug-20 05:25N 53°32' E 009°60'0 0.0
2014-Aug-20 04:31N 53°32' E 009°60'0 0.0
2014-Aug-20 03:31N 53°32' E 009°60'0 0.0
2014-Aug-20 02:25N 53°32' E 009°60'0 0.0
2014-Aug-20 01:13N 53°32' E 009°60'0 0.0
2014-Aug-20 00:31N 53°32' E 009°60'0 0.0
2014-Aug-19 23:31N 53°32' E 009°60'0 0.0
2014-Aug-19 22:31N 53°32' E 009°60'0 0.0
2014-Aug-19 21:32N 53°32' E 009°60'0 0.0
2014-Aug-19 20:34N 53°32' E 009°60'5 4.8
2014-Aug-19 19:34N 53°33' E 009°52'1111.3
2014-Aug-19 18:33N 53°37' E 009°34'1514.8
2014-Aug-19 17:33N 53°49' E 009°22'1414.3
2014-Aug-19 16:33N 53°51' E 008°57'1615.9
2014-Aug-19 15:33N 53°58' E 008°33'1717.3
2014-Aug-19 14:33N 53°60' E 008°04'1717.4
2014-Aug-19 13:33N 54°09' E 007°39'1818.3
2014-Aug-19 12:33N 54°24' E 007°20'1818.2
2014-Aug-19 11:33N 54°42' E 007°19'1818.1
2014-Aug-19 10:33N 54°60' E 007°21'1817.6
2014-Aug-19 09:33N 55°17' E 007°22'1817.3
2014-Aug-19 08:32N 55°35' E 007°21'1816.7
2014-Aug-19 07:29N 55°52' E 007°28'1616.8
2014-Aug-19 06:33N 56°08' E 007°33'3616.5
2014-Aug-19 04:21N 56°44' E 007°46'2915.0
2014-Aug-19 02:27N 57°09' E 008°09'3014.5
2014-Aug-19 00:21N 57°27' E 008°54'  

Dump ship's entire track history